createdAt,value
2022-10-23T00:03:58.714Z,4.72
2022-10-23T00:09:01.163Z,4.58
2022-10-23T00:14:06.114Z,4.78
2022-10-23T00:19:08.435Z,4.78
2022-10-23T00:29:32.533Z,4.86
2022-10-23T00:34:34.631Z,4.56
2022-10-23T00:39:38.822Z,4.88
2022-10-23T00:45:13.396Z,4.79
2022-10-23T00:50:16.232Z,4.47
2022-10-23T00:55:20.040Z,4.89
2022-10-23T01:00:42.976Z,4.61
2022-10-23T01:06:00.708Z,4.72
2022-10-23T01:11:15.766Z,4.83
2022-10-23T01:16:27.771Z,4.74
2022-10-23T01:22:21.784Z,4.66
2022-10-23T01:27:28.707Z,4.65
2022-10-23T01:32:37.935Z,4.43
2022-10-23T01:37:47.000Z,4.57
2022-10-23T01:42:54.458Z,4.61
2022-10-23T01:48:22.865Z,4.39
2022-10-23T01:53:44.682Z,4.55
2022-10-23T01:58:51.476Z,4.29
2022-10-23T02:03:54.764Z,4.23
2022-10-23T02:09:15.770Z,3.83
2022-10-23T02:14:51.876Z,4.32
2022-10-23T02:20:02.888Z,4.07
2022-10-23T02:25:36.500Z,3.96
2022-10-23T02:30:42.440Z,3.93
2022-10-23T02:35:47.520Z,3.86
2022-10-23T02:41:40.886Z,4.10
2022-10-23T02:47:09.822Z,3.98
2022-10-23T02:52:36.648Z,3.78
2022-10-23T02:57:45.081Z,3.65
2022-10-23T03:02:54.846Z,2.79
2022-10-23T03:07:57.538Z,3.79
2022-10-23T03:12:59.811Z,3.55
2022-10-23T03:18:05.381Z,3.58
2022-10-23T03:23:26.934Z,3.56
2022-10-23T03:28:29.101Z,3.76
2022-10-23T03:33:32.094Z,3.79
2022-10-23T03:38:42.209Z,3.29
2022-10-23T03:43:45.877Z,3.71
2022-10-23T03:48:48.011Z,3.48
2022-10-23T03:53:50.175Z,3.31
2022-10-23T03:58:52.528Z,3.63
2022-10-23T04:03:55.119Z,3.17
2022-10-23T04:08:59.528Z,3.30
2022-10-23T04:14:01.968Z,3.52
2022-10-23T04:19:04.202Z,3.09
2022-10-23T04:24:06.698Z,3.22
2022-10-23T04:29:08.816Z,3.27
2022-10-23T04:34:10.982Z,3.06
2022-10-23T04:39:13.251Z,3.23
2022-10-23T04:44:15.468Z,3.42
2022-10-23T04:49:18.115Z,2.87
2022-10-23T04:54:41.513Z,2.85
2022-10-23T05:00:08.663Z,2.42
2022-10-23T05:05:19.109Z,3.19
2022-10-23T05:10:50.244Z,3.25
2022-10-23T05:16:26.731Z,3.37
2022-10-23T05:21:30.508Z,3.18
2022-10-23T05:26:34.539Z,2.87
2022-10-23T05:31:41.828Z,3.24
2022-10-23T05:37:08.586Z,3.39
2022-10-23T05:42:13.336Z,3.44
2022-10-23T05:47:16.793Z,3.23
2022-10-23T05:52:27.911Z,3.39
2022-10-23T05:57:44.774Z,3.37
2022-10-23T06:02:51.084Z,3.41
2022-10-23T06:08:06.308Z,3.29
2022-10-23T06:13:09.031Z,2.16
2022-10-23T06:18:12.104Z,2.20
2022-10-23T06:23:25.816Z,3.10
2022-10-23T06:28:37.624Z,3.53
2022-10-23T06:33:40.976Z,3.60
2022-10-23T06:38:47.380Z,3.68
2022-10-23T06:43:51.161Z,4.01
2022-10-23T06:49:02.369Z,3.35
2022-10-23T06:54:08.958Z,4.10
2022-10-23T06:59:26.212Z,3.95
2022-10-23T07:04:30.021Z,4.13
2022-10-23T07:09:35.938Z,4.06
2022-10-23T07:14:53.469Z,4.16
2022-10-23T07:20:01.191Z,4.21
2022-10-23T07:25:05.786Z,4.40
2022-10-23T07:30:31.885Z,4.06
2022-10-23T07:35:38.595Z,4.58
2022-10-23T07:40:47.556Z,4.35
2022-10-23T07:45:52.760Z,4.39
2022-10-23T07:51:21.665Z,4.22
2022-10-23T07:56:30.755Z,4.51
2022-10-23T08:01:46.042Z,4.63
2022-10-23T08:06:49.199Z,4.34
2022-10-23T08:11:51.968Z,4.37
2022-10-23T08:16:56.360Z,4.72
2022-10-23T08:22:18.839Z,4.75
2022-10-23T08:27:21.798Z,5.05
2022-10-23T08:32:24.967Z,4.68
2022-10-23T08:37:31.303Z,4.90
2022-10-23T08:42:40.287Z,4.92
2022-10-23T08:47:46.458Z,4.59
2022-10-23T08:53:44.279Z,5.16
2022-10-23T08:58:56.206Z,5.08
2022-10-23T09:03:58.399Z,5.03
2022-10-23T09:09:16.179Z,5.15
2022-10-23T09:14:49.284Z,5.42
2022-10-23T09:20:19.848Z,5.38
2022-10-23T09:28:49.315Z,5.35
2022-10-23T09:33:59.925Z,5.39
2022-10-23T09:39:02.476Z,5.00
2022-10-23T09:44:07.782Z,5.41
2022-10-23T09:49:25.158Z,5.49
2022-10-23T09:54:47.529Z,5.25
2022-10-23T10:00:14.493Z,5.49
2022-10-23T10:05:26.488Z,5.25
2022-10-23T10:10:45.333Z,5.30
2022-10-23T10:15:55.043Z,5.35
2022-10-23T10:21:11.224Z,5.37
2022-10-23T10:26:56.122Z,5.56
2022-10-23T10:32:34.832Z,5.51
2022-10-23T10:42:49.355Z,5.54
2022-10-23T10:48:27.000Z,5.49
2022-10-23T10:54:31.292Z,5.33
2022-10-23T10:59:38.637Z,5.38
2022-10-23T11:05:16.343Z,5.42
2022-10-23T11:10:20.046Z,5.48
2022-10-23T11:15:39.646Z,5.46
2022-10-23T11:20:59.871Z,5.60
2022-10-23T11:26:18.782Z,5.41
2022-10-23T11:31:31.021Z,5.62
2022-10-23T11:36:55.491Z,5.62
2022-10-23T11:42:33.290Z,5.67
2022-10-23T11:47:39.919Z,5.54
2022-10-23T11:53:15.099Z,5.40
2022-10-23T11:58:32.257Z,5.38
2022-10-23T12:03:56.506Z,5.41
2022-10-23T12:09:04.900Z,5.39
2022-10-23T12:14:26.106Z,5.03
2022-10-23T12:19:30.952Z,5.41
2022-10-23T12:25:02.630Z,5.64
2022-10-23T12:30:29.431Z,5.43
2022-10-23T12:35:47.919Z,5.59
2022-10-23T12:40:56.126Z,5.57
2022-10-23T12:46:42.707Z,5.63
2022-10-23T12:51:46.924Z,5.45
2022-10-23T12:56:49.863Z,5.60
2022-10-23T13:01:53.053Z,5.53
2022-10-23T13:07:01.185Z,5.66
2022-10-23T13:12:06.664Z,5.39
2022-10-23T13:17:13.193Z,5.34
2022-10-23T13:22:33.850Z,5.54
2022-10-23T13:32:43.787Z,5.69
2022-10-23T13:37:46.316Z,5.66
2022-10-23T13:43:14.281Z,5.65
2022-10-23T13:48:16.430Z,6.07
2022-10-23T13:53:37.628Z,5.77
2022-10-23T13:58:58.389Z,5.28
2022-10-23T14:04:00.722Z,4.91
2022-10-23T14:09:04.670Z,5.55
2022-10-23T14:14:06.939Z,5.52
2022-10-23T14:19:09.836Z,5.34
2022-10-23T14:24:12.196Z,5.33
2022-10-23T14:29:21.364Z,5.53
2022-10-23T14:34:26.369Z,5.37
2022-10-23T14:39:28.693Z,5.53
2022-10-23T14:49:41.673Z,5.37
2022-10-23T14:54:45.980Z,5.52
2022-10-23T14:59:49.280Z,5.36
2022-10-23T15:04:51.509Z,5.04
2022-10-23T15:09:53.871Z,5.29
2022-10-23T15:14:56.089Z,5.64
2022-10-23T15:19:58.550Z,5.41
2022-10-23T15:25:00.790Z,5.36
2022-10-23T15:30:03.193Z,5.28
2022-10-23T15:40:49.486Z,5.64
2022-10-23T15:45:51.707Z,5.37
2022-10-23T15:50:55.716Z,5.29
2022-10-23T15:55:59.113Z,5.46
2022-10-23T16:01:08.397Z,5.67
2022-10-23T16:06:16.690Z,5.46
2022-10-23T16:11:24.845Z,5.46
2022-10-23T16:16:45.801Z,5.39
2022-10-23T16:21:48.048Z,5.49
2022-10-23T16:26:56.329Z,5.65
2022-10-23T16:32:00.205Z,5.34
2022-10-23T16:37:02.488Z,5.62
2022-10-23T16:42:29.410Z,5.58
2022-10-23T16:47:58.850Z,5.34
2022-10-23T16:53:01.173Z,5.63
2022-10-23T16:58:53.477Z,5.75
2022-10-23T17:04:21.960Z,5.63
2022-10-23T17:09:31.527Z,4.56
2022-10-23T17:14:33.823Z,5.39
2022-10-23T17:19:45.088Z,5.44
2022-10-23T17:24:51.456Z,5.45
2022-10-23T17:29:56.257Z,5.47
2022-10-23T17:34:58.674Z,5.37
2022-10-23T17:40:02.751Z,5.59
2022-10-23T17:45:06.134Z,5.75
2022-10-23T17:50:09.744Z,5.44
2022-10-23T17:55:11.906Z,5.67
2022-10-23T18:00:14.400Z,5.53
2022-10-23T18:11:24.768Z,5.50
2022-10-23T18:16:27.314Z,5.68
2022-10-23T18:21:31.952Z,5.77
2022-10-23T18:26:35.373Z,5.77
2022-10-23T18:31:38.004Z,5.60
2022-10-23T18:36:41.127Z,5.54
2022-10-23T18:41:48.167Z,5.70
2022-10-23T18:46:50.860Z,5.54
2022-10-23T18:51:55.801Z,5.52
2022-10-23T18:56:59.219Z,5.29
2022-10-23T19:02:02.751Z,5.80
2022-10-23T19:07:05.134Z,5.45
2022-10-23T19:12:09.697Z,5.58
2022-10-23T19:17:23.647Z,4.71
2022-10-23T19:22:32.341Z,4.59
2022-10-23T19:27:34.602Z,5.21
2022-10-23T19:32:55.673Z,5.60
2022-10-23T19:38:00.646Z,5.61
2022-10-23T19:43:21.373Z,5.56
2022-10-23T19:48:23.518Z,5.39
2022-10-23T19:53:44.718Z,5.37
2022-10-23T19:58:47.650Z,5.46
2022-10-23T20:03:50.679Z,5.75
2022-10-23T20:08:54.428Z,5.45
2022-10-23T20:13:57.715Z,5.63
2022-10-23T20:19:07.542Z,5.56
2022-10-23T20:24:12.530Z,5.72
2022-10-23T20:29:15.407Z,5.65
2022-10-23T20:34:19.856Z,5.40
2022-10-23T20:39:27.118Z,5.49
2022-10-23T20:44:30.945Z,5.47
2022-10-23T20:49:33.030Z,5.15
2022-10-23T20:54:36.579Z,5.20
2022-10-23T20:59:57.616Z,5.42
2022-10-23T21:04:59.828Z,5.52
2022-10-23T21:10:05.420Z,5.50
2022-10-23T21:15:08.511Z,5.49
2022-10-23T21:20:10.956Z,5.66
2022-10-23T21:25:15.828Z,5.54
2022-10-23T21:30:17.972Z,5.18
2022-10-23T21:35:20.075Z,5.43
2022-10-23T21:40:22.281Z,5.07
2022-10-23T21:45:44.499Z,5.56
2022-10-23T21:50:46.711Z,5.33
2022-10-23T21:55:48.842Z,5.28
2022-10-23T22:00:50.992Z,5.35
2022-10-23T22:05:53.211Z,5.25
2022-10-23T22:10:55.355Z,5.24
2022-10-23T22:16:02.565Z,5.20
2022-10-23T22:21:11.191Z,5.44
2022-10-23T22:26:28.567Z,5.60
2022-10-23T22:31:32.507Z,5.56
2022-10-23T22:36:38.268Z,5.38
2022-10-23T22:41:58.680Z,5.20
2022-10-23T22:47:00.823Z,4.75
2022-10-23T22:52:02.992Z,5.05
2022-10-23T22:57:05.146Z,5.16
2022-10-23T23:02:26.068Z,5.38
2022-10-23T23:07:46.992Z,5.37
2022-10-23T23:12:52.839Z,5.57
2022-10-23T23:18:01.063Z,5.45
2022-10-23T23:23:03.579Z,5.37
2022-10-23T23:28:05.746Z,5.24
2022-10-23T23:33:08.658Z,5.20
2022-10-23T23:38:11.631Z,5.51
2022-10-23T23:43:13.819Z,4.84
2022-10-23T23:48:16.083Z,5.48
2022-10-23T23:53:18.370Z,5.45
2022-10-23T23:58:20.634Z,5.25
